sensor_id;sensor_type;location;lat;lon;timestamp;temperature;humidity
6756;DHT22;3415;51.148;7.014;2023-05-19T00:01:09;8.90;1.00
6756;DHT22;3415;51.148;7.014;2023-05-19T00:03:48;8.80;1.00
6756;DHT22;3415;51.148;7.014;2023-05-19T00:06:21;8.70;1.00
6756;DHT22;3415;51.148;7.014;2023-05-19T00:08:55;8.60;1.00
6756;DHT22;3415;51.148;7.014;2023-05-19T00:11:23;8.50;1.00
6756;DHT22;3415;51.148;7.014;2023-05-19T00:13:52;8.40;1.00
6756;DHT22;3415;51.148;7.014;2023-05-19T00:16:19;8.30;1.00
6756;DHT22;3415;51.148;7.014;2023-05-19T00:18:46;8.30;1.00
6756;DHT22;3415;51.148;7.014;2023-05-19T00:21:14;8.30;1.00
6756;DHT22;3415;51.148;7.014;2023-05-19T00:23:41;8.20;1.00
6756;DHT22;3415;51.148;7.014;2023-05-19T00:26:09;8.10;1.00
6756;DHT22;3415;51.148;7.014;2023-05-19T00:28:36;8.10;1.00
6756;DHT22;3415;51.148;7.014;2023-05-19T00:31:03;8.00;1.00
6756;DHT22;3415;51.148;7.014;2023-05-19T00:33:31;8.10;1.00
6756;DHT22;3415;51.148;7.014;2023-05-19T00:35:58;8.00;1.00
6756;DHT22;3415;51.148;7.014;2023-05-19T00:38:27;7.90;1.00
6756;DHT22;3415;51.148;7.014;2023-05-19T00:40:54;7.90;1.00
6756;DHT22;3415;51.148;7.014;2023-05-19T00:43:22;7.80;1.00
6756;DHT22;3415;51.148;7.014;2023-05-19T00:45:49;7.80;1.00
6756;DHT22;3415;51.148;7.014;2023-05-19T00:48:16;7.80;1.00
6756;DHT22;3415;51.148;7.014;2023-05-19T00:50:43;7.70;1.00
6756;DHT22;3415;51.148;7.014;2023-05-19T00:53:12;7.80;1.00
6756;DHT22;3415;51.148;7.014;2023-05-19T00:55:40;7.80;1.00
6756;DHT22;3415;51.148;7.014;2023-05-19T00:58:09;7.70;1.00
6756;DHT22;3415;51.148;7.014;2023-05-19T01:00:37;7.60;1.00
6756;DHT22;3415;51.148;7.014;2023-05-19T01:03:05;7.60;1.00
6756;DHT22;3415;51.148;7.014;2023-05-19T01:05:37;7.60;1.00
6756;DHT22;3415;51.148;7.014;2023-05-19T01:08:04;7.60;1.00
6756;DHT22;3415;51.148;7.014;2023-05-19T01:10:31;7.60;1.00
6756;DHT22;3415;51.148;7.014;2023-05-19T01:12:58;7.50;1.00
6756;DHT22;3415;51.148;7.014;2023-05-19T01:15:26;7.50;1.00
6756;DHT22;3415;51.148;7.014;2023-05-19T01:18:00;7.40;1.00
6756;DHT22;3415;51.148;7.014;2023-05-19T01:20:37;7.40;1.00
6756;DHT22;3415;51.148;7.014;2023-05-19T01:23:26;7.30;1.00
6756;DHT22;3415;51.148;7.014;2023-05-19T01:26:08;7.30;1.00
6756;DHT22;3415;51.148;7.014;2023-05-19T01:29:02;7.30;1.00
6756;DHT22;3415;51.148;7.014;2023-05-19T01:31:36;7.40;1.00
6756;DHT22;3415;51.148;7.014;2023-05-19T01:34:05;7.40;1.00
6756;DHT22;3415;51.148;7.014;2023-05-19T01:36:33;7.40;1.00
6756;DHT22;3415;51.148;7.014;2023-05-19T01:39:01;7.40;1.00
6756;DHT22;3415;51.148;7.014;2023-05-19T01:41:29;7.30;1.00
6756;DHT22;3415;51.148;7.014;2023-05-19T01:43:58;7.30;1.00
6756;DHT22;3415;51.148;7.014;2023-05-19T01:46:25;7.20;1.00
6756;DHT22;3415;51.148;7.014;2023-05-19T01:48:54;7.20;1.00
6756;DHT22;3415;51.148;7.014;2023-05-19T01:51:21;7.20;1.00
6756;DHT22;3415;51.148;7.014;2023-05-19T01:53:48;7.10;1.00
6756;DHT22;3415;51.148;7.014;2023-05-19T01:56:26;7.10;1.00
6756;DHT22;3415;51.148;7.014;2023-05-19T01:58:59;7.10;1.00
6756;DHT22;3415;51.148;7.014;2023-05-19T02:01:32;7.10;1.00
6756;DHT22;3415;51.148;7.014;2023-05-19T02:04:15;7.00;1.00
6756;DHT22;3415;51.148;7.014;2023-05-19T02:06:47;7.00;1.00
6756;DHT22;3415;51.148;7.014;2023-05-19T02:09:19;7.00;1.00
6756;DHT22;3415;51.148;7.014;2023-05-19T02:11:53;7.00;1.00
6756;DHT22;3415;51.148;7.014;2023-05-19T02:14:24;7.10;1.00
6756;DHT22;3415;51.148;7.014;2023-05-19T02:16:56;7.00;1.00
6756;DHT22;3415;51.148;7.014;2023-05-19T02:19:25;7.00;1.00
6756;DHT22;3415;51.148;7.014;2023-05-19T02:21:53;6.90;1.00
6756;DHT22;3415;51.148;7.014;2023-05-19T02:24:19;6.90;1.00
6756;DHT22;3415;51.148;7.014;2023-05-19T02:26:47;6.90;1.00
6756;DHT22;3415;51.148;7.014;2023-05-19T02:29:14;6.80;1.00
6756;DHT22;3415;51.148;7.014;2023-05-19T02:31:41;6.70;1.00
6756;DHT22;3415;51.148;7.014;2023-05-19T02:34:08;6.60;1.00
6756;DHT22;3415;51.148;7.014;2023-05-19T02:36:39;6.60;1.00
6756;DHT22;3415;51.148;7.014;2023-05-19T02:39:07;6.60;1.00
6756;DHT22;3415;51.148;7.014;2023-05-19T02:41:34;6.60;1.00
6756;DHT22;3415;51.148;7.014;2023-05-19T02:44:01;6.50;1.00
6756;DHT22;3415;51.148;7.014;2023-05-19T02:46:27;6.50;1.00
6756;DHT22;3415;51.148;7.014;2023-05-19T02:48:54;6.50;1.00
6756;DHT22;3415;51.148;7.014;2023-05-19T02:51:21;6.50;1.00
6756;DHT22;3415;51.148;7.014;2023-05-19T02:53:49;6.40;1.00
6756;DHT22;3415;51.148;7.014;2023-05-19T02:56:16;6.50;1.00
6756;DHT22;3415;51.148;7.014;2023-05-19T02:58:43;6.40;1.00
6756;DHT22;3415;51.148;7.014;2023-05-19T03:01:10;6.50;1.00
6756;DHT22;3415;51.148;7.014;2023-05-19T03:03:37;6.50;1.00
6756;DHT22;3415;51.148;7.014;2023-05-19T03:06:04;6.40;1.00
6756;DHT22;3415;51.148;7.014;2023-05-19T03:08:33;6.50;1.00
6756;DHT22;3415;51.148;7.014;2023-05-19T03:11:01;6.50;1.00
6756;DHT22;3415;51.148;7.014;2023-05-19T03:13:28;6.60;1.00
6756;DHT22;3415;51.148;7.014;2023-05-19T03:15:54;6.60;1.00
6756;DHT22;3415;51.148;7.014;2023-05-19T03:18:23;6.70;1.00
6756;DHT22;3415;51.148;7.014;2023-05-19T03:20:50;6.80;1.00
6756;DHT22;3415;51.148;7.014;2023-05-19T03:23:18;7.00;1.00
6756;DHT22;3415;51.148;7.014;2023-05-19T03:25:45;7.10;1.00
6756;DHT22;3415;51.148;7.014;2023-05-19T03:28:13;7.20;1.00
6756;DHT22;3415;51.148;7.014;2023-05-19T03:30:40;7.20;1.00
6756;DHT22;3415;51.148;7.014;2023-05-19T03:33:07;7.20;1.00
6756;DHT22;3415;51.148;7.014;2023-05-19T03:35:34;7.20;1.00
6756;DHT22;3415;51.148;7.014;2023-05-19T03:38:01;7.20;1.00
6756;DHT22;3415;51.148;7.014;2023-05-19T03:40:28;7.10;1.00
6756;DHT22;3415;51.148;7.014;2023-05-19T03:42:55;7.10;1.00
6756;DHT22;3415;51.148;7.014;2023-05-19T03:45:23;7.20;1.00
6756;DHT22;3415;51.148;7.014;2023-05-19T03:47:49;7.30;1.00
6756;DHT22;3415;51.148;7.014;2023-05-19T03:50:16;7.30;1.00
6756;DHT22;3415;51.148;7.014;2023-05-19T03:52:43;7.40;1.00
6756;DHT22;3415;51.148;7.014;2023-05-19T03:55:12;7.40;1.00
6756;DHT22;3415;51.148;7.014;2023-05-19T03:57:40;7.40;1.00
6756;DHT22;3415;51.148;7.014;2023-05-19T04:00:10;7.40;1.00
6756;DHT22;3415;51.148;7.014;2023-05-19T04:02:38;7.40;1.00
6756;DHT22;3415;51.148;7.014;2023-05-19T04:05:06;7.50;1.00
6756;DHT22;3415;51.148;7.014;2023-05-19T04:07:33;7.50;1.00
6756;DHT22;3415;51.148;7.014;2023-05-19T04:10:02;7.70;1.00
6756;DHT22;3415;51.148;7.014;2023-05-19T04:12:29;7.80;1.00
6756;DHT22;3415;51.148;7.014;2023-05-19T04:14:56;7.90;1.00
6756;DHT22;3415;51.148;7.014;2023-05-19T04:17:23;8.00;1.00
6756;DHT22;3415;51.148;7.014;2023-05-19T04:19:52;8.10;1.00
6756;DHT22;3415;51.148;7.014;2023-05-19T04:22:18;8.20;1.00
6756;DHT22;3415;51.148;7.014;2023-05-19T04:24:45;8.30;1.00
6756;DHT22;3415;51.148;7.014;2023-05-19T04:27:13;8.40;1.00
6756;DHT22;3415;51.148;7.014;2023-05-19T04:29:40;8.60;1.00
6756;DHT22;3415;51.148;7.014;2023-05-19T04:32:07;8.60;1.00
6756;DHT22;3415;51.148;7.014;2023-05-19T04:34:35;8.60;1.00
6756;DHT22;3415;51.148;7.014;2023-05-19T04:37:06;8.70;1.00
6756;DHT22;3415;51.148;7.014;2023-05-19T04:39:34;8.80;1.00
6756;DHT22;3415;51.148;7.014;2023-05-19T04:42:03;8.80;1.00
6756;DHT22;3415;51.148;7.014;2023-05-19T04:44:30;8.80;1.00
6756;DHT22;3415;51.148;7.014;2023-05-19T04:46:58;8.90;1.00
6756;DHT22;3415;51.148;7.014;2023-05-19T04:49:25;9.00;1.00
6756;DHT22;3415;51.148;7.014;2023-05-19T04:51:52;9.10;1.00
6756;DHT22;3415;51.148;7.014;2023-05-19T04:54:20;9.20;1.00
6756;DHT22;3415;51.148;7.014;2023-05-19T04:56:47;9.40;1.00
6756;DHT22;3415;51.148;7.014;2023-05-19T04:59:13;9.40;1.00
6756;DHT22;3415;51.148;7.014;2023-05-19T05:04:07;9.60;1.00
6756;DHT22;3415;51.148;7.014;2023-05-19T05:06:34;9.80;1.00
6756;DHT22;3415;51.148;7.014;2023-05-19T05:09:03;9.90;1.00
6756;DHT22;3415;51.148;7.014;2023-05-19T05:11:32;10.00;1.00
6756;DHT22;3415;51.148;7.014;2023-05-19T05:13:59;10.30;1.00
6756;DHT22;3415;51.148;7.014;2023-05-19T05:16:26;10.30;1.00
6756;DHT22;3415;51.148;7.014;2023-05-19T05:18:54;10.50;1.00
6756;DHT22;3415;51.148;7.014;2023-05-19T05:21:22;10.70;1.00
6756;DHT22;3415;51.148;7.014;2023-05-19T05:23:49;10.90;1.00
6756;DHT22;3415;51.148;7.014;2023-05-19T05:26:18;11.20;1.00
6756;DHT22;3415;51.148;7.014;2023-05-19T05:28:47;11.50;1.00
6756;DHT22;3415;51.148;7.014;2023-05-19T05:31:15;11.80;1.00
6756;DHT22;3415;51.148;7.014;2023-05-19T05:33:42;12.00;1.00
6756;DHT22;3415;51.148;7.014;2023-05-19T05:36:09;12.40;1.00
6756;DHT22;3415;51.148;7.014;2023-05-19T05:38:38;12.90;99.90
6756;DHT22;3415;51.148;7.014;2023-05-19T05:41:05;12.90;99.90
6756;DHT22;3415;51.148;7.014;2023-05-19T05:43:34;13.20;99.90
6756;DHT22;3415;51.148;7.014;2023-05-19T05:46:02;12.70;99.90
6756;DHT22;3415;51.148;7.014;2023-05-19T05:48:30;13.80;99.90
6756;DHT22;3415;51.148;7.014;2023-05-19T05:50:58;14.00;99.90
6756;DHT22;3415;51.148;7.014;2023-05-19T05:53:29;14.20;99.90
6756;DHT22;3415;51.148;7.014;2023-05-19T05:55:57;14.50;99.90
6756;DHT22;3415;51.148;7.014;2023-05-19T05:58:24;14.60;99.90
6756;DHT22;3415;51.148;7.014;2023-05-19T06:00:52;14.90;99.90
6756;DHT22;3415;51.148;7.014;2023-05-19T06:03:23;15.10;99.90
6756;DHT22;3415;51.148;7.014;2023-05-19T06:05:50;15.40;99.90
6756;DHT22;3415;51.148;7.014;2023-05-19T06:08:17;15.50;99.90
6756;DHT22;3415;51.148;7.014;2023-05-19T06:10:44;15.80;99.90
6756;DHT22;3415;51.148;7.014;2023-05-19T06:13:10;16.20;99.90
6756;DHT22;3415;51.148;7.014;2023-05-19T06:15:37;16.70;99.90
6756;DHT22;3415;51.148;7.014;2023-05-19T06:18:04;16.90;99.90
6756;DHT22;3415;51.148;7.014;2023-05-19T06:20:32;16.90;99.90
6756;DHT22;3415;51.148;7.014;2023-05-19T06:23:00;17.20;99.90
6756;DHT22;3415;51.148;7.014;2023-05-19T06:25:26;17.30;99.90
6756;DHT22;3415;51.148;7.014;2023-05-19T06:27:53;17.40;99.90
6756;DHT22;3415;51.148;7.014;2023-05-19T06:30:20;17.40;99.90
6756;DHT22;3415;51.148;7.014;2023-05-19T06:32:47;17.70;99.90
6756;DHT22;3415;51.148;7.014;2023-05-19T06:35:14;17.80;99.90
6756;DHT22;3415;51.148;7.014;2023-05-19T06:37:42;17.80;99.90
6756;DHT22;3415;51.148;7.014;2023-05-19T06:40:10;18.10;99.90
6756;DHT22;3415;51.148;7.014;2023-05-19T06:42:37;18.60;99.90
6756;DHT22;3415;51.148;7.014;2023-05-19T06:45:04;18.80;99.90
6756;DHT22;3415;51.148;7.014;2023-05-19T06:47:31;19.10;99.90
6756;DHT22;3415;51.148;7.014;2023-05-19T06:49:58;19.00;99.90
6756;DHT22;3415;51.148;7.014;2023-05-19T06:52:25;19.50;99.90
6756;DHT22;3415;51.148;7.014;2023-05-19T06:54:53;19.80;99.90
6756;DHT22;3415;51.148;7.014;2023-05-19T06:57:20;20.00;99.90
6756;DHT22;3415;51.148;7.014;2023-05-19T06:59:47;20.10;99.90
6756;DHT22;3415;51.148;7.014;2023-05-19T07:02:13;20.00;99.90
6756;DHT22;3415;51.148;7.014;2023-05-19T07:04:40;19.80;99.90
6756;DHT22;3415;51.148;7.014;2023-05-19T07:07:07;19.90;99.90
6756;DHT22;3415;51.148;7.014;2023-05-19T07:09:34;20.20;99.90
6756;DHT22;3415;51.148;7.014;2023-05-19T07:12:03;20.50;99.90
6756;DHT22;3415;51.148;7.014;2023-05-19T07:14:30;21.00;99.90
6756;DHT22;3415;51.148;7.014;2023-05-19T07:16:57;21.50;99.90
6756;DHT22;3415;51.148;7.014;2023-05-19T07:19:24;21.80;99.90
6756;DHT22;3415;51.148;7.014;2023-05-19T07:21:51;21.70;99.90
6756;DHT22;3415;51.148;7.014;2023-05-19T07:24:19;21.80;99.90
6756;DHT22;3415;51.148;7.014;2023-05-19T07:26:46;22.20;99.90
6756;DHT22;3415;51.148;7.014;2023-05-19T07:29:14;22.50;99.90
6756;DHT22;3415;51.148;7.014;2023-05-19T07:31:41;22.20;99.90
6756;DHT22;3415;51.148;7.014;2023-05-19T07:34:08;22.50;99.90
6756;DHT22;3415;51.148;7.014;2023-05-19T07:36:35;22.40;99.90
6756;DHT22;3415;51.148;7.014;2023-05-19T07:39:02;22.50;99.90
6756;DHT22;3415;51.148;7.014;2023-05-19T07:41:29;23.20;99.90
6756;DHT22;3415;51.148;7.014;2023-05-19T07:43:56;23.70;99.90
6756;DHT22;3415;51.148;7.014;2023-05-19T07:46:24;23.60;99.90
6756;DHT22;3415;51.148;7.014;2023-05-19T07:48:51;23.60;99.90
6756;DHT22;3415;51.148;7.014;2023-05-19T07:51:18;23.40;99.90
6756;DHT22;3415;51.148;7.014;2023-05-19T07:53:44;23.60;99.90
6756;DHT22;3415;51.148;7.014;2023-05-19T07:56:12;23.40;99.90
6756;DHT22;3415;51.148;7.014;2023-05-19T07:58:39;24.30;99.90
6756;DHT22;3415;51.148;7.014;2023-05-19T08:01:05;24.00;99.90
6756;DHT22;3415;51.148;7.014;2023-05-19T08:03:34;24.30;99.90
6756;DHT22;3415;51.148;7.014;2023-05-19T08:06:00;23.50;99.90
6756;DHT22;3415;51.148;7.014;2023-05-19T08:08:27;24.30;99.90
6756;DHT22;3415;51.148;7.014;2023-05-19T08:10:54;24.80;99.90
6756;DHT22;3415;51.148;7.014;2023-05-19T08:13:21;25.00;99.90
6756;DHT22;3415;51.148;7.014;2023-05-19T08:15:48;25.50;99.90
6756;DHT22;3415;51.148;7.014;2023-05-19T08:18:15;25.00;99.90
6756;DHT22;3415;51.148;7.014;2023-05-19T08:20:43;25.40;99.90
6756;DHT22;3415;51.148;7.014;2023-05-19T08:23:10;25.80;99.90
6756;DHT22;3415;51.148;7.014;2023-05-19T08:25:37;25.80;99.90
6756;DHT22;3415;51.148;7.014;2023-05-19T08:28:05;25.40;99.90
6756;DHT22;3415;51.148;7.014;2023-05-19T08:30:32;24.90;99.90
6756;DHT22;3415;51.148;7.014;2023-05-19T08:32:58;25.80;99.90
6756;DHT22;3415;51.148;7.014;2023-05-19T08:35:25;26.00;99.90
6756;DHT22;3415;51.148;7.014;2023-05-19T08:37:53;26.30;99.90
6756;DHT22;3415;51.148;7.014;2023-05-19T08:40:21;27.10;99.90
6756;DHT22;3415;51.148;7.014;2023-05-19T08:42:48;25.60;99.90
6756;DHT22;3415;51.148;7.014;2023-05-19T08:45:15;25.90;99.90
6756;DHT22;3415;51.148;7.014;2023-05-19T08:47:43;25.80;99.90
6756;DHT22;3415;51.148;7.014;2023-05-19T08:50:13;26.30;99.90
6756;DHT22;3415;51.148;7.014;2023-05-19T08:52:48;26.50;99.90
6756;DHT22;3415;51.148;7.014;2023-05-19T08:55:35;26.30;99.90
6756;DHT22;3415;51.148;7.014;2023-05-19T08:58:03;25.80;99.90
6756;DHT22;3415;51.148;7.014;2023-05-19T09:00:29;27.10;99.90
6756;DHT22;3415;51.148;7.014;2023-05-19T09:02:57;27.70;99.90
6756;DHT22;3415;51.148;7.014;2023-05-19T09:05:25;27.80;99.90
6756;DHT22;3415;51.148;7.014;2023-05-19T09:07:51;26.90;99.90
6756;DHT22;3415;51.148;7.014;2023-05-19T09:10:20;27.50;99.90
6756;DHT22;3415;51.148;7.014;2023-05-19T09:12:46;28.50;99.90
6756;DHT22;3415;51.148;7.014;2023-05-19T09:15:16;28.30;99.90
6756;DHT22;3415;51.148;7.014;2023-05-19T09:17:44;27.60;99.90
6756;DHT22;3415;51.148;7.014;2023-05-19T09:20:12;27.50;99.90
6756;DHT22;3415;51.148;7.014;2023-05-19T09:22:41;27.90;99.90
6756;DHT22;3415;51.148;7.014;2023-05-19T09:25:21;27.50;99.90
6756;DHT22;3415;51.148;7.014;2023-05-19T09:27:49;26.40;99.90
6756;DHT22;3415;51.148;7.014;2023-05-19T09:30:16;25.40;99.90
6756;DHT22;3415;51.148;7.014;2023-05-19T09:32:44;24.40;99.90
6756;DHT22;3415;51.148;7.014;2023-05-19T09:35:11;24.20;99.90
6756;DHT22;3415;51.148;7.014;2023-05-19T09:37:42;24.80;99.90
6756;DHT22;3415;51.148;7.014;2023-05-19T09:40:09;25.50;99.90
6756;DHT22;3415;51.148;7.014;2023-05-19T09:42:38;27.30;99.90
6756;DHT22;3415;51.148;7.014;2023-05-19T09:45:06;27.50;99.90
6756;DHT22;3415;51.148;7.014;2023-05-19T09:47:33;28.00;99.90
6756;DHT22;3415;51.148;7.014;2023-05-19T09:50:01;28.20;99.90
6756;DHT22;3415;51.148;7.014;2023-05-19T09:52:29;27.90;99.90
6756;DHT22;3415;51.148;7.014;2023-05-19T09:54:57;26.40;99.90
6756;DHT22;3415;51.148;7.014;2023-05-19T09:57:25;25.30;99.90
6756;DHT22;3415;51.148;7.014;2023-05-19T09:59:55;24.20;99.90
6756;DHT22;3415;51.148;7.014;2023-05-19T10:02:23;23.10;99.90
6756;DHT22;3415;51.148;7.014;2023-05-19T10:04:51;23.10;99.90
6756;DHT22;3415;51.148;7.014;2023-05-19T10:07:20;25.30;99.90
6756;DHT22;3415;51.148;7.014;2023-05-19T10:09:49;27.60;99.90
6756;DHT22;3415;51.148;7.014;2023-05-19T10:12:17;27.40;99.90
6756;DHT22;3415;51.148;7.014;2023-05-19T10:14:44;27.30;99.90
6756;DHT22;3415;51.148;7.014;2023-05-19T10:17:13;26.50;99.90
6756;DHT22;3415;51.148;7.014;2023-05-19T10:19:40;24.40;99.90
6756;DHT22;3415;51.148;7.014;2023-05-19T10:22:09;23.40;99.90
6756;DHT22;3415;51.148;7.014;2023-05-19T10:24:36;23.80;99.90
6756;DHT22;3415;51.148;7.014;2023-05-19T10:27:07;26.40;99.90
6756;DHT22;3415;51.148;7.014;2023-05-19T10:29:39;27.30;99.90
6756;DHT22;3415;51.148;7.014;2023-05-19T10:32:09;27.30;99.90
6756;DHT22;3415;51.148;7.014;2023-05-19T10:35:11;28.90;99.90
6756;DHT22;3415;51.148;7.014;2023-05-19T10:37:44;30.40;99.90
6756;DHT22;3415;51.148;7.014;2023-05-19T10:40:17;30.20;99.90
6756;DHT22;3415;51.148;7.014;2023-05-19T10:42:56;27.70;99.90
6756;DHT22;3415;51.148;7.014;2023-05-19T10:45:29;28.00;99.90
6756;DHT22;3415;51.148;7.014;2023-05-19T10:47:56;27.80;99.90
6756;DHT22;3415;51.148;7.014;2023-05-19T10:50:25;28.40;99.90
6756;DHT22;3415;51.148;7.014;2023-05-19T10:52:52;28.60;99.90
6756;DHT22;3415;51.148;7.014;2023-05-19T10:55:43;28.30;99.90
6756;DHT22;3415;51.148;7.014;2023-05-19T10:58:10;28.80;99.90
6756;DHT22;3415;51.148;7.014;2023-05-19T11:00:38;28.80;99.90
6756;DHT22;3415;51.148;7.014;2023-05-19T11:03:14;28.30;99.90
6756;DHT22;3415;51.148;7.014;2023-05-19T11:05:43;26.00;99.90
6756;DHT22;3415;51.148;7.014;2023-05-19T11:08:11;25.90;99.90
6756;DHT22;3415;51.148;7.014;2023-05-19T11:10:38;27.30;99.90
6756;DHT22;3415;51.148;7.014;2023-05-19T11:13:18;28.20;99.90
6756;DHT22;3415;51.148;7.014;2023-05-19T11:15:45;28.40;99.90
6756;DHT22;3415;51.148;7.014;2023-05-19T11:18:13;28.30;99.90
6756;DHT22;3415;51.148;7.014;2023-05-19T11:20:40;28.80;99.90
6756;DHT22;3415;51.148;7.014;2023-05-19T11:23:14;29.90;99.90
6756;DHT22;3415;51.148;7.014;2023-05-19T11:25:44;30.20;99.90
6756;DHT22;3415;51.148;7.014;2023-05-19T11:28:14;29.90;99.90
6756;DHT22;3415;51.148;7.014;2023-05-19T11:30:43;31.20;99.90
6756;DHT22;3415;51.148;7.014;2023-05-19T11:33:10;30.60;99.90
6756;DHT22;3415;51.148;7.014;2023-05-19T11:35:37;30.20;99.90
6756;DHT22;3415;51.148;7.014;2023-05-19T11:38:05;28.90;99.90
6756;DHT22;3415;51.148;7.014;2023-05-19T11:40:34;29.00;99.90
6756;DHT22;3415;51.148;7.014;2023-05-19T11:43:00;28.90;99.90
6756;DHT22;3415;51.148;7.014;2023-05-19T11:45:28;28.60;99.90
6756;DHT22;3415;51.148;7.014;2023-05-19T11:47:57;28.80;99.90
6756;DHT22;3415;51.148;7.014;2023-05-19T11:50:24;28.10;99.90
6756;DHT22;3415;51.148;7.014;2023-05-19T11:52:51;26.80;99.90
6756;DHT22;3415;51.148;7.014;2023-05-19T11:55:19;26.30;99.90
6756;DHT22;3415;51.148;7.014;2023-05-19T11:57:58;26.10;99.90
6756;DHT22;3415;51.148;7.014;2023-05-19T12:00:27;26.90;99.90
6756;DHT22;3415;51.148;7.014;2023-05-19T12:02:55;28.20;99.90
6756;DHT22;3415;51.148;7.014;2023-05-19T12:05:23;29.20;99.90
6756;DHT22;3415;51.148;7.014;2023-05-19T12:07:50;30.20;99.90
6756;DHT22;3415;51.148;7.014;2023-05-19T12:10:21;30.80;99.90
6756;DHT22;3415;51.148;7.014;2023-05-19T12:12:49;29.30;99.90
6756;DHT22;3415;51.148;7.014;2023-05-19T12:15:19;28.20;99.90
6756;DHT22;3415;51.148;7.014;2023-05-19T12:17:48;26.60;99.90
6756;DHT22;3415;51.148;7.014;2023-05-19T12:20:16;24.80;99.90
6756;DHT22;3415;51.148;7.014;2023-05-19T12:22:43;23.80;99.90
6756;DHT22;3415;51.148;7.014;2023-05-19T12:25:10;22.80;99.90
6756;DHT22;3415;51.148;7.014;2023-05-19T12:27:37;22.30;99.90
6756;DHT22;3415;51.148;7.014;2023-05-19T12:30:05;22.20;99.90
6756;DHT22;3415;51.148;7.014;2023-05-19T12:32:34;21.80;99.90
6756;DHT22;3415;51.148;7.014;2023-05-19T12:35:02;21.80;99.90
6756;DHT22;3415;51.148;7.014;2023-05-19T12:37:30;22.30;99.90
6756;DHT22;3415;51.148;7.014;2023-05-19T12:39:59;22.80;99.90
6756;DHT22;3415;51.148;7.014;2023-05-19T12:42:27;22.50;99.90
6756;DHT22;3415;51.148;7.014;2023-05-19T12:44:56;22.30;99.90
6756;DHT22;3415;51.148;7.014;2023-05-19T12:47:29;22.20;99.90
6756;DHT22;3415;51.148;7.014;2023-05-19T12:50:02;22.50;99.90
6756;DHT22;3415;51.148;7.014;2023-05-19T12:52:31;22.90;99.90
6756;DHT22;3415;51.148;7.014;2023-05-19T12:55:00;22.40;99.90
6756;DHT22;3415;51.148;7.014;2023-05-19T12:57:29;22.50;99.90
6756;DHT22;3415;51.148;7.014;2023-05-19T13:00:00;22.50;99.90
6756;DHT22;3415;51.148;7.014;2023-05-19T13:02:29;22.00;99.90
6756;DHT22;3415;51.148;7.014;2023-05-19T13:04:56;22.10;99.90
6756;DHT22;3415;51.148;7.014;2023-05-19T13:07:24;21.90;99.90
6756;DHT22;3415;51.148;7.014;2023-05-19T13:09:51;21.70;99.90
6756;DHT22;3415;51.148;7.014;2023-05-19T13:12:18;21.70;99.90
6756;DHT22;3415;51.148;7.014;2023-05-19T13:14:45;21.40;99.90
6756;DHT22;3415;51.148;7.014;2023-05-19T13:17:12;21.40;99.90
6756;DHT22;3415;51.148;7.014;2023-05-19T13:19:39;21.10;99.90
6756;DHT22;3415;51.148;7.014;2023-05-19T13:22:06;21.00;99.90
6756;DHT22;3415;51.148;7.014;2023-05-19T13:24:34;21.10;99.90
6756;DHT22;3415;51.148;7.014;2023-05-19T13:27:01;21.10;99.90
6756;DHT22;3415;51.148;7.014;2023-05-19T13:29:29;21.30;99.90
6756;DHT22;3415;51.148;7.014;2023-05-19T13:31:56;21.60;99.90
6756;DHT22;3415;51.148;7.014;2023-05-19T13:34:23;21.80;99.90
6756;DHT22;3415;51.148;7.014;2023-05-19T13:36:50;21.70;99.90
6756;DHT22;3415;51.148;7.014;2023-05-19T13:39:17;21.60;99.90
6756;DHT22;3415;51.148;7.014;2023-05-19T13:41:45;21.40;99.90
6756;DHT22;3415;51.148;7.014;2023-05-19T13:44:12;21.40;99.90
6756;DHT22;3415;51.148;7.014;2023-05-19T13:46:39;21.40;99.90
6756;DHT22;3415;51.148;7.014;2023-05-19T13:49:05;21.50;99.90
6756;DHT22;3415;51.148;7.014;2023-05-19T13:51:32;21.30;99.90
6756;DHT22;3415;51.148;7.014;2023-05-19T13:53:59;20.90;99.90
6756;DHT22;3415;51.148;7.014;2023-05-19T13:56:26;20.90;99.90
6756;DHT22;3415;51.148;7.014;2023-05-19T13:58:54;20.90;99.90
6756;DHT22;3415;51.148;7.014;2023-05-19T14:01:21;21.20;99.90
6756;DHT22;3415;51.148;7.014;2023-05-19T14:03:48;21.10;99.90
6756;DHT22;3415;51.148;7.014;2023-05-19T14:06:14;21.30;99.90
6756;DHT22;3415;51.148;7.014;2023-05-19T14:08:43;21.10;99.90
6756;DHT22;3415;51.148;7.014;2023-05-19T14:11:16;21.10;99.90
6756;DHT22;3415;51.148;7.014;2023-05-19T14:13:44;21.10;99.90
6756;DHT22;3415;51.148;7.014;2023-05-19T14:16:12;21.20;99.90
6756;DHT22;3415;51.148;7.014;2023-05-19T14:18:39;21.30;99.90
6756;DHT22;3415;51.148;7.014;2023-05-19T14:21:05;21.10;99.90
6756;DHT22;3415;51.148;7.014;2023-05-19T14:23:32;21.00;99.90
6756;DHT22;3415;51.148;7.014;2023-05-19T14:25:59;20.90;99.90
6756;DHT22;3415;51.148;7.014;2023-05-19T14:28:26;20.90;99.90
6756;DHT22;3415;51.148;7.014;2023-05-19T14:30:53;20.90;99.90
6756;DHT22;3415;51.148;7.014;2023-05-19T14:33:21;21.00;99.90
6756;DHT22;3415;51.148;7.014;2023-05-19T14:35:48;21.00;99.90
6756;DHT22;3415;51.148;7.014;2023-05-19T14:38:15;21.20;99.90
6756;DHT22;3415;51.148;7.014;2023-05-19T14:40:43;21.20;99.90
6756;DHT22;3415;51.148;7.014;2023-05-19T14:43:10;21.10;99.90
6756;DHT22;3415;51.148;7.014;2023-05-19T14:45:37;21.20;99.90
6756;DHT22;3415;51.148;7.014;2023-05-19T14:48:06;21.20;99.90
6756;DHT22;3415;51.148;7.014;2023-05-19T14:50:34;21.30;99.90
6756;DHT22;3415;51.148;7.014;2023-05-19T14:53:01;21.20;99.90
6756;DHT22;3415;51.148;7.014;2023-05-19T14:55:28;21.00;99.90
6756;DHT22;3415;51.148;7.014;2023-05-19T14:57:55;20.90;99.90
6756;DHT22;3415;51.148;7.014;2023-05-19T15:00:22;20.90;99.90
6756;DHT22;3415;51.148;7.014;2023-05-19T15:02:50;21.00;99.90
6756;DHT22;3415;51.148;7.014;2023-05-19T15:05:17;20.90;99.90
6756;DHT22;3415;51.148;7.014;2023-05-19T15:07:45;21.00;99.90
6756;DHT22;3415;51.148;7.014;2023-05-19T15:10:12;21.30;99.90
6756;DHT22;3415;51.148;7.014;2023-05-19T15:12:39;21.10;99.90
6756;DHT22;3415;51.148;7.014;2023-05-19T15:15:07;21.00;99.90
6756;DHT22;3415;51.148;7.014;2023-05-19T15:17:34;21.00;99.90
6756;DHT22;3415;51.148;7.014;2023-05-19T15:20:01;21.00;99.90
6756;DHT22;3415;51.148;7.014;2023-05-19T15:22:27;21.00;99.90
6756;DHT22;3415;51.148;7.014;2023-05-19T15:24:56;20.80;99.90
6756;DHT22;3415;51.148;7.014;2023-05-19T15:27:23;20.70;99.90
6756;DHT22;3415;51.148;7.014;2023-05-19T15:29:49;20.70;99.90
6756;DHT22;3415;51.148;7.014;2023-05-19T15:32:16;20.50;99.90
6756;DHT22;3415;51.148;7.014;2023-05-19T15:34:43;20.50;99.90
6756;DHT22;3415;51.148;7.014;2023-05-19T15:37:10;20.50;99.90
6756;DHT22;3415;51.148;7.014;2023-05-19T15:39:37;20.80;99.90
6756;DHT22;3415;51.148;7.014;2023-05-19T15:42:05;20.70;99.90
6756;DHT22;3415;51.148;7.014;2023-05-19T15:44:32;20.80;99.90
6756;DHT22;3415;51.148;7.014;2023-05-19T15:47:00;20.80;99.90
6756;DHT22;3415;51.148;7.014;2023-05-19T15:49:27;20.60;99.90
6756;DHT22;3415;51.148;7.014;2023-05-19T15:51:54;20.60;99.90
6756;DHT22;3415;51.148;7.014;2023-05-19T15:54:21;20.60;99.90
6756;DHT22;3415;51.148;7.014;2023-05-19T15:56:48;20.60;99.90
6756;DHT22;3415;51.148;7.014;2023-05-19T15:59:16;20.60;99.90
6756;DHT22;3415;51.148;7.014;2023-05-19T16:01:43;20.40;99.90
6756;DHT22;3415;51.148;7.014;2023-05-19T16:04:11;20.40;99.90
6756;DHT22;3415;51.148;7.014;2023-05-19T16:06:38;20.40;99.90
6756;DHT22;3415;51.148;7.014;2023-05-19T16:09:04;20.40;99.90
6756;DHT22;3415;51.148;7.014;2023-05-19T16:11:31;20.40;99.90
6756;DHT22;3415;51.148;7.014;2023-05-19T16:13:58;20.40;99.90
6756;DHT22;3415;51.148;7.014;2023-05-19T16:16:26;20.50;99.90
6756;DHT22;3415;51.148;7.014;2023-05-19T16:18:53;20.30;99.90
6756;DHT22;3415;51.148;7.014;2023-05-19T16:21:20;20.30;99.90